sensor_id;sensor_type;location;lat;lon;timestamp;pressure;altitude;pressure_sealevel;temperature;humidity
48862;BME280;34681;49.188;-0.374;2022-08-02T00:01:38;101742.38;;;21.40;61.19
48862;BME280;34681;49.188;-0.374;2022-08-02T00:04:03;101746.22;;;21.39;61.22
48862;BME280;34681;49.188;-0.374;2022-08-02T00:06:29;101737.41;;;21.36;61.22
48862;BME280;34681;49.188;-0.374;2022-08-02T00:08:54;101739.91;;;21.30;61.35
48862;BME280;34681;49.188;-0.374;2022-08-02T00:11:20;101736.91;;;21.32;61.23
48862;BME280;34681;49.188;-0.374;2022-08-02T00:13:45;101732.88;;;21.35;61.11
48862;BME280;34681;49.188;-0.374;2022-08-02T00:16:11;101731.16;;;21.34;61.08
48862;BME280;34681;49.188;-0.374;2022-08-02T00:18:36;101734.19;;;21.24;61.75
48862;BME280;34681;49.188;-0.374;2022-08-02T00:21:01;101744.75;;;21.14;62.06
48862;BME280;34681;49.188;-0.374;2022-08-02T00:23:27;101733.25;;;21.17;61.64
48862;BME280;34681;49.188;-0.374;2022-08-02T00:25:52;101730.25;;;21.18;61.75
48862;BME280;34681;49.188;-0.374;2022-08-02T00:28:17;101728.84;;;21.08;61.98
48862;BME280;34681;49.188;-0.374;2022-08-02T00:30:43;101731.72;;;21.14;61.79
48862;BME280;34681;49.188;-0.374;2022-08-02T00:33:08;101732.47;;;21.08;62.21
48862;BME280;34681;49.188;-0.374;2022-08-02T00:35:34;101737.78;;;21.03;62.20
48862;BME280;34681;49.188;-0.374;2022-08-02T00:38:01;101738.13;;;21.00;62.18
48862;BME280;34681;49.188;-0.374;2022-08-02T00:40:26;101733.44;;;21.15;61.98
48862;BME280;34681;49.188;-0.374;2022-08-02T00:43:03;101725.59;;;21.19;61.81
48862;BME280;34681;49.188;-0.374;2022-08-02T00:45:31;101728.38;;;21.19;61.67
48862;BME280;34681;49.188;-0.374;2022-08-02T00:47:57;101727.59;;;21.10;61.95
48862;BME280;34681;49.188;-0.374;2022-08-02T00:50:23;101724.44;;;21.13;61.99
48862;BME280;34681;49.188;-0.374;2022-08-02T00:52:48;101720.13;;;21.11;61.96
48862;BME280;34681;49.188;-0.374;2022-08-02T00:55:14;101726.72;;;20.95;62.36
48862;BME280;34681;49.188;-0.374;2022-08-02T00:57:39;101725.69;;;20.96;62.59
48862;BME280;34681;49.188;-0.374;2022-08-02T01:00:05;101720.56;;;20.99;62.43
48862;BME280;34681;49.188;-0.374;2022-08-02T01:02:31;101719.34;;;21.02;61.98
48862;BME280;34681;49.188;-0.374;2022-08-02T01:04:56;101707.22;;;21.10;61.84
48862;BME280;34681;49.188;-0.374;2022-08-02T01:07:22;101720.97;;;20.96;62.44
48862;BME280;34681;49.188;-0.374;2022-08-02T01:09:47;101717.31;;;20.81;62.73
48862;BME280;34681;49.188;-0.374;2022-08-02T01:12:12;101715.00;;;20.85;62.83
48862;BME280;34681;49.188;-0.374;2022-08-02T01:14:40;101713.69;;;20.81;63.09
48862;BME280;34681;49.188;-0.374;2022-08-02T01:29:38;101729.50;;;20.80;62.53
48862;BME280;34681;49.188;-0.374;2022-08-02T01:32:12;101716.16;;;20.75;62.63
48862;BME280;34681;49.188;-0.374;2022-08-02T01:34:42;101710.00;;;20.65;62.79
48862;BME280;34681;49.188;-0.374;2022-08-02T01:37:15;101707.41;;;20.64;62.87
48862;BME280;34681;49.188;-0.374;2022-08-02T01:39:43;101711.94;;;20.65;62.86
48862;BME280;34681;49.188;-0.374;2022-08-02T01:42:10;101703.03;;;20.69;62.70
48862;BME280;34681;49.188;-0.374;2022-08-02T01:44:39;101707.81;;;20.61;62.89
48862;BME280;34681;49.188;-0.374;2022-08-02T01:47:08;101697.44;;;20.55;63.04
48862;BME280;34681;49.188;-0.374;2022-08-02T01:49:36;101703.97;;;20.62;63.00
48862;BME280;34681;49.188;-0.374;2022-08-02T01:52:05;101705.13;;;20.53;63.18
48862;BME280;34681;49.188;-0.374;2022-08-02T01:55:21;101693.88;;;20.46;63.01
48862;BME280;34681;49.188;-0.374;2022-08-02T01:57:53;101687.94;;;20.49;63.04
48862;BME280;34681;49.188;-0.374;2022-08-02T02:00:21;101690.44;;;20.44;63.12
48862;BME280;34681;49.188;-0.374;2022-08-02T02:02:48;101679.53;;;20.34;63.54
48862;BME280;34681;49.188;-0.374;2022-08-02T02:05:16;101683.81;;;20.45;63.15
48862;BME280;34681;49.188;-0.374;2022-08-02T02:07:44;101682.97;;;20.44;63.39
48862;BME280;34681;49.188;-0.374;2022-08-02T02:10:14;101678.97;;;20.39;63.14
48862;BME280;34681;49.188;-0.374;2022-08-02T02:12:46;101679.91;;;20.31;63.34
48862;BME280;34681;49.188;-0.374;2022-08-02T02:15:14;101676.28;;;20.31;63.40
48862;BME280;34681;49.188;-0.374;2022-08-02T02:17:44;101677.22;;;20.23;63.61
48862;BME280;34681;49.188;-0.374;2022-08-02T02:20:16;101672.25;;;20.33;63.33
48862;BME280;34681;49.188;-0.374;2022-08-02T02:22:43;101675.59;;;20.29;63.48
48862;BME280;34681;49.188;-0.374;2022-08-02T02:25:10;101686.41;;;20.24;63.72
48862;BME280;34681;49.188;-0.374;2022-08-02T02:27:36;101685.44;;;20.16;63.81
48862;BME280;34681;49.188;-0.374;2022-08-02T02:30:04;101674.69;;;20.13;63.94
48862;BME280;34681;49.188;-0.374;2022-08-02T02:32:30;101674.03;;;20.26;63.46
48862;BME280;34681;49.188;-0.374;2022-08-02T02:34:58;101679.72;;;20.33;63.11
48862;BME280;34681;49.188;-0.374;2022-08-02T02:37:27;101676.47;;;20.29;63.21
48862;BME280;34681;49.188;-0.374;2022-08-02T02:39:54;101677.53;;;20.28;63.15
48862;BME280;34681;49.188;-0.374;2022-08-02T02:42:22;101678.16;;;20.15;63.58
48862;BME280;34681;49.188;-0.374;2022-08-02T02:44:50;101671.41;;;20.10;63.79
48862;BME280;34681;49.188;-0.374;2022-08-02T02:47:18;101660.00;;;20.05;63.97
48862;BME280;34681;49.188;-0.374;2022-08-02T02:49:45;101660.94;;;19.97;64.06
48862;BME280;34681;49.188;-0.374;2022-08-02T02:52:13;101663.84;;;20.04;64.06
48862;BME280;34681;49.188;-0.374;2022-08-02T02:54:41;101667.56;;;19.96;64.18
48862;BME280;34681;49.188;-0.374;2022-08-02T02:57:07;101665.44;;;19.98;64.21
48862;BME280;34681;49.188;-0.374;2022-08-02T02:59:33;101656.06;;;19.99;64.18
48862;BME280;34681;49.188;-0.374;2022-08-02T03:02:00;101660.22;;;20.03;64.11
48862;BME280;34681;49.188;-0.374;2022-08-02T03:04:28;101662.22;;;20.09;63.61
48862;BME280;34681;49.188;-0.374;2022-08-02T03:06:53;101659.97;;;19.90;64.27
48862;BME280;34681;49.188;-0.374;2022-08-02T03:09:19;101653.72;;;19.88;64.41
48862;BME280;34681;49.188;-0.374;2022-08-02T03:11:46;101649.22;;;19.87;64.31
48862;BME280;34681;49.188;-0.374;2022-08-02T03:14:12;101653.28;;;19.99;64.01
48862;BME280;34681;49.188;-0.374;2022-08-02T03:16:47;101655.84;;;19.86;64.37
48862;BME280;34681;49.188;-0.374;2022-08-02T03:19:13;101650.97;;;19.88;64.41
48862;BME280;34681;49.188;-0.374;2022-08-02T03:21:38;101648.31;;;19.95;64.12
48862;BME280;34681;49.188;-0.374;2022-08-02T03:24:05;101647.78;;;19.91;64.05
48862;BME280;34681;49.188;-0.374;2022-08-02T03:26:31;101648.19;;;19.88;64.43
48862;BME280;34681;49.188;-0.374;2022-08-02T03:28:56;101655.66;;;19.87;64.46
48862;BME280;34681;49.188;-0.374;2022-08-02T03:31:21;101655.94;;;19.92;64.69
48862;BME280;34681;49.188;-0.374;2022-08-02T03:33:48;101656.91;;;20.23;63.73
48862;BME280;34681;49.188;-0.374;2022-08-02T03:36:15;101648.69;;;20.29;63.79
48862;BME280;34681;49.188;-0.374;2022-08-02T03:38:43;101655.66;;;20.25;63.97
48862;BME280;34681;49.188;-0.374;2022-08-02T03:41:11;101664.19;;;20.24;64.14
48862;BME280;34681;49.188;-0.374;2022-08-02T03:43:37;101664.66;;;20.27;64.10
48862;BME280;34681;49.188;-0.374;2022-08-02T03:46:06;101656.75;;;20.39;63.71
48862;BME280;34681;49.188;-0.374;2022-08-02T03:48:32;101657.00;;;20.52;63.28
48862;BME280;34681;49.188;-0.374;2022-08-02T03:50:59;101650.06;;;20.48;63.53
48862;BME280;34681;49.188;-0.374;2022-08-02T03:53:24;101650.94;;;20.48;63.58
48862;BME280;34681;49.188;-0.374;2022-08-02T03:55:50;101648.53;;;20.45;63.94
48862;BME280;34681;49.188;-0.374;2022-08-02T03:58:20;101644.44;;;20.56;63.54
48862;BME280;34681;49.188;-0.374;2022-08-02T04:00:46;101643.75;;;20.54;63.61
48862;BME280;34681;49.188;-0.374;2022-08-02T04:03:12;101646.53;;;20.54;63.65
48862;BME280;34681;49.188;-0.374;2022-08-02T04:05:38;101645.94;;;20.59;63.20
48862;BME280;34681;49.188;-0.374;2022-08-02T04:08:03;101639.53;;;20.73;63.18
48862;BME280;34681;49.188;-0.374;2022-08-02T04:10:29;101642.97;;;20.75;62.64
48862;BME280;34681;49.188;-0.374;2022-08-02T04:12:55;101638.00;;;20.70;62.79
48862;BME280;34681;49.188;-0.374;2022-08-02T04:15:22;101645.09;;;20.58;63.20
48862;BME280;34681;49.188;-0.374;2022-08-02T04:17:54;101637.81;;;20.57;63.27
48862;BME280;34681;49.188;-0.374;2022-08-02T04:20:24;101631.84;;;20.75;62.83
48862;BME280;34681;49.188;-0.374;2022-08-02T04:23:04;101629.66;;;20.70;62.57
48862;BME280;34681;49.188;-0.374;2022-08-02T04:25:31;101646.44;;;20.62;62.82
48862;BME280;34681;49.188;-0.374;2022-08-02T04:27:59;101640.50;;;20.65;62.81
48862;BME280;34681;49.188;-0.374;2022-08-02T04:30:27;101637.41;;;20.75;62.73
48862;BME280;34681;49.188;-0.374;2022-08-02T04:32:53;101641.47;;;20.72;62.76
48862;BME280;34681;49.188;-0.374;2022-08-02T04:35:19;101644.34;;;20.79;62.79
48862;BME280;34681;49.188;-0.374;2022-08-02T04:37:45;101641.81;;;20.84;62.28
48862;BME280;34681;49.188;-0.374;2022-08-02T04:40:11;101646.38;;;20.85;62.30
48862;BME280;34681;49.188;-0.374;2022-08-02T04:42:37;101648.44;;;20.83;62.50
48862;BME280;34681;49.188;-0.374;2022-08-02T04:45:04;101653.66;;;20.86;62.29
48862;BME280;34681;49.188;-0.374;2022-08-02T04:47:30;101645.88;;;20.82;62.27
48862;BME280;34681;49.188;-0.374;2022-08-02T04:49:56;101644.69;;;20.76;62.49
48862;BME280;34681;49.188;-0.374;2022-08-02T04:52:21;101648.09;;;20.86;62.55
48862;BME280;34681;49.188;-0.374;2022-08-02T04:54:47;101647.38;;;20.84;62.57
48862;BME280;34681;49.188;-0.374;2022-08-02T04:57:12;101645.88;;;20.96;62.30
48862;BME280;34681;49.188;-0.374;2022-08-02T04:59:56;101651.88;;;21.00;62.40
48862;BME280;34681;49.188;-0.374;2022-08-02T05:02:21;101646.16;;;20.87;63.03
48862;BME280;34681;49.188;-0.374;2022-08-02T05:04:47;101647.03;;;20.87;63.10
48862;BME280;34681;49.188;-0.374;2022-08-02T05:07:12;101645.75;;;20.90;63.22
48862;BME280;34681;49.188;-0.374;2022-08-02T05:09:38;101647.22;;;20.86;63.34
48862;BME280;34681;49.188;-0.374;2022-08-02T05:12:03;101653.94;;;20.62;64.18
48862;BME280;34681;49.188;-0.374;2022-08-02T05:14:28;101653.84;;;20.70;64.08
48862;BME280;34681;49.188;-0.374;2022-08-02T05:16:54;101648.94;;;20.87;63.70
48862;BME280;34681;49.188;-0.374;2022-08-02T05:19:19;101651.44;;;20.96;63.70
48862;BME280;34681;49.188;-0.374;2022-08-02T05:21:44;101652.66;;;21.09;63.42
48862;BME280;34681;49.188;-0.374;2022-08-02T05:24:10;101656.59;;;20.99;63.93
48862;BME280;34681;49.188;-0.374;2022-08-02T05:26:35;101651.88;;;21.00;64.18
48862;BME280;34681;49.188;-0.374;2022-08-02T05:29:00;101656.97;;;21.11;63.91
48862;BME280;34681;49.188;-0.374;2022-08-02T05:31:27;101648.59;;;21.26;63.63
48862;BME280;34681;49.188;-0.374;2022-08-02T05:33:52;101647.84;;;21.32;63.03
48862;BME280;34681;49.188;-0.374;2022-08-02T05:36:17;101658.97;;;21.17;63.73
48862;BME280;34681;49.188;-0.374;2022-08-02T05:38:43;101652.44;;;21.25;63.28
48862;BME280;34681;49.188;-0.374;2022-08-02T05:41:08;101653.81;;;21.14;63.84
48862;BME280;34681;49.188;-0.374;2022-08-02T05:43:33;101658.78;;;21.19;63.78
48862;BME280;34681;49.188;-0.374;2022-08-02T05:45:59;101663.28;;;21.35;63.46
48862;BME280;34681;49.188;-0.374;2022-08-02T05:48:24;101654.28;;;21.33;63.21
48862;BME280;34681;49.188;-0.374;2022-08-02T05:50:54;101657.53;;;21.36;63.42
48862;BME280;34681;49.188;-0.374;2022-08-02T05:58:51;101659.09;;;21.60;62.68
48862;BME280;34681;49.188;-0.374;2022-08-02T06:01:31;101663.41;;;21.63;62.70
48862;BME280;34681;49.188;-0.374;2022-08-02T06:03:58;101663.22;;;21.64;62.56
48862;BME280;34681;49.188;-0.374;2022-08-02T06:06:25;101660.50;;;21.71;62.86
48862;BME280;34681;49.188;-0.374;2022-08-02T06:08:58;101659.50;;;21.78;62.15
48862;BME280;34681;49.188;-0.374;2022-08-02T06:11:33;101653.88;;;21.93;61.71
48862;BME280;34681;49.188;-0.374;2022-08-02T06:14:01;101653.53;;;21.81;62.38
48862;BME280;34681;49.188;-0.374;2022-08-02T06:16:26;101657.25;;;21.88;62.16
48862;BME280;34681;49.188;-0.374;2022-08-02T06:18:52;101662.97;;;22.02;61.59
48862;BME280;34681;49.188;-0.374;2022-08-02T06:21:18;101659.00;;;22.11;61.30
48862;BME280;34681;49.188;-0.374;2022-08-02T06:23:46;101660.41;;;22.07;61.59
48862;BME280;34681;49.188;-0.374;2022-08-02T06:26:13;101670.88;;;22.20;61.30
48862;BME280;34681;49.188;-0.374;2022-08-02T06:28:40;101668.94;;;22.20;61.26
48862;BME280;34681;49.188;-0.374;2022-08-02T06:31:06;101672.66;;;22.27;61.16
48862;BME280;34681;49.188;-0.374;2022-08-02T06:33:31;101670.03;;;22.26;61.20
48862;BME280;34681;49.188;-0.374;2022-08-02T06:36:05;101671.59;;;22.28;61.42
48862;BME280;34681;49.188;-0.374;2022-08-02T06:38:36;101668.03;;;22.41;61.16
48862;BME280;34681;49.188;-0.374;2022-08-02T06:41:09;101667.66;;;22.44;60.63
48862;BME280;34681;49.188;-0.374;2022-08-02T06:46:04;101663.47;;;22.61;59.92
48862;BME280;34681;49.188;-0.374;2022-08-02T06:48:31;101668.44;;;22.66;60.25
48862;BME280;34681;49.188;-0.374;2022-08-02T06:51:00;101665.91;;;22.71;59.68
48862;BME280;34681;49.188;-0.374;2022-08-02T06:53:25;101671.53;;;22.78;59.43
48862;BME280;34681;49.188;-0.374;2022-08-02T06:55:51;101676.63;;;22.74;59.88
48862;BME280;34681;49.188;-0.374;2022-08-02T06:58:16;101671.06;;;22.74;59.74
48862;BME280;34681;49.188;-0.374;2022-08-02T07:00:41;101668.59;;;22.86;59.61
48862;BME280;34681;49.188;-0.374;2022-08-02T07:03:08;101668.09;;;22.82;60.24
48862;BME280;34681;49.188;-0.374;2022-08-02T07:05:33;101670.69;;;22.84;60.19
48862;BME280;34681;49.188;-0.374;2022-08-02T07:08:00;101673.34;;;22.92;59.73
48862;BME280;34681;49.188;-0.374;2022-08-02T07:10:26;101677.66;;;22.94;59.59
48862;BME280;34681;49.188;-0.374;2022-08-02T07:12:52;101680.25;;;22.96;59.41
48862;BME280;34681;49.188;-0.374;2022-08-02T07:15:18;101680.50;;;23.01;59.37
48862;BME280;34681;49.188;-0.374;2022-08-02T07:17:43;101680.47;;;22.94;60.27
48862;BME280;34681;49.188;-0.374;2022-08-02T07:20:08;101678.75;;;22.93;60.19
48862;BME280;34681;49.188;-0.374;2022-08-02T07:22:34;101690.59;;;23.02;60.35
48862;BME280;34681;49.188;-0.374;2022-08-02T07:25:00;101688.94;;;23.14;59.78
48862;BME280;34681;49.188;-0.374;2022-08-02T07:27:26;101697.94;;;23.16;59.65
48862;BME280;34681;49.188;-0.374;2022-08-02T07:29:52;101690.09;;;23.26;59.23
48862;BME280;34681;49.188;-0.374;2022-08-02T07:32:19;101692.19;;;23.18;60.12
48862;BME280;34681;49.188;-0.374;2022-08-02T07:34:45;101687.47;;;23.18;59.53
48862;BME280;34681;49.188;-0.374;2022-08-02T07:37:10;101692.88;;;23.33;59.46
48862;BME280;34681;49.188;-0.374;2022-08-02T07:39:36;101692.06;;;23.39;59.52
48862;BME280;34681;49.188;-0.374;2022-08-02T07:42:01;101691.91;;;23.54;58.68
48862;BME280;34681;49.188;-0.374;2022-08-02T07:44:27;101689.09;;;23.54;58.72
48862;BME280;34681;49.188;-0.374;2022-08-02T07:46:56;101686.41;;;23.74;58.29
48862;BME280;34681;49.188;-0.374;2022-08-02T07:49:22;101695.22;;;23.77;58.43
48862;BME280;34681;49.188;-0.374;2022-08-02T07:51:47;101694.16;;;23.78;58.38
48862;BME280;34681;49.188;-0.374;2022-08-02T07:54:12;101687.53;;;23.86;58.84
48862;BME280;34681;49.188;-0.374;2022-08-02T07:56:38;101690.72;;;23.90;58.47
48862;BME280;34681;49.188;-0.374;2022-08-02T07:59:04;101692.25;;;23.92;58.19
48862;BME280;34681;49.188;-0.374;2022-08-02T08:01:29;101695.91;;;23.93;58.44
48862;BME280;34681;49.188;-0.374;2022-08-02T08:03:55;101694.63;;;23.95;58.17
48862;BME280;34681;49.188;-0.374;2022-08-02T08:06:21;101694.03;;;24.40;57.08
48862;BME280;34681;49.188;-0.374;2022-08-02T08:08:46;101698.56;;;24.54;57.06
48862;BME280;34681;49.188;-0.374;2022-08-02T08:11:11;101690.41;;;24.59;56.23
48862;BME280;34681;49.188;-0.374;2022-08-02T08:13:37;101687.16;;;24.55;57.69
48862;BME280;34681;49.188;-0.374;2022-08-02T08:16:02;101693.41;;;24.44;57.40
48862;BME280;34681;49.188;-0.374;2022-08-02T08:18:28;101695.09;;;24.65;56.75
48862;BME280;34681;49.188;-0.374;2022-08-02T08:20:54;101698.50;;;24.93;56.56
48862;BME280;34681;49.188;-0.374;2022-08-02T08:23:19;101698.72;;;25.05;56.16
48862;BME280;34681;49.188;-0.374;2022-08-02T08:25:45;101702.59;;;25.11;55.95
48862;BME280;34681;49.188;-0.374;2022-08-02T08:28:10;101683.38;;;25.21;56.48
48862;BME280;34681;49.188;-0.374;2022-08-02T08:30:35;101683.50;;;25.39;56.10
48862;BME280;34681;49.188;-0.374;2022-08-02T08:33:01;101684.31;;;25.53;54.89
48862;BME280;34681;49.188;-0.374;2022-08-02T08:35:27;101680.13;;;25.82;55.32
48862;BME280;34681;49.188;-0.374;2022-08-02T08:37:52;101689.59;;;26.13;54.04
48862;BME280;34681;49.188;-0.374;2022-08-02T08:40:17;101681.13;;;26.51;52.81
48862;BME280;34681;49.188;-0.374;2022-08-02T08:42:43;101689.34;;;26.71;52.15
48862;BME280;34681;49.188;-0.374;2022-08-02T08:45:09;101685.03;;;27.11;50.70
48862;BME280;34681;49.188;-0.374;2022-08-02T08:47:36;101688.31;;;27.45;49.64
48862;BME280;34681;49.188;-0.374;2022-08-02T08:50:08;101686.09;;;27.65;49.51
48862;BME280;34681;49.188;-0.374;2022-08-02T08:52:37;101694.09;;;28.87;47.67
48862;BME280;34681;49.188;-0.374;2022-08-02T08:55:04;101695.94;;;29.17;45.88
48862;BME280;34681;49.188;-0.374;2022-08-02T08:57:33;101701.13;;;28.96;46.08
48862;BME280;34681;49.188;-0.374;2022-08-02T08:59:59;101700.72;;;28.81;46.47
48862;BME280;34681;49.188;-0.374;2022-08-02T09:02:25;101697.41;;;29.31;45.42
48862;BME280;34681;49.188;-0.374;2022-08-02T09:04:50;101696.88;;;29.34;47.14
48862;BME280;34681;49.188;-0.374;2022-08-02T09:07:16;101699.38;;;29.30;45.36
48862;BME280;34681;49.188;-0.374;2022-08-02T09:09:41;101693.59;;;29.25;46.01
48862;BME280;34681;49.188;-0.374;2022-08-02T09:12:14;101691.34;;;29.51;44.93
48862;BME280;34681;49.188;-0.374;2022-08-02T09:14:40;101700.06;;;29.78;45.47
48862;BME280;34681;49.188;-0.374;2022-08-02T09:17:09;101689.03;;;29.88;44.36
48862;BME280;34681;49.188;-0.374;2022-08-02T09:19:37;101686.81;;;30.07;45.28
48862;BME280;34681;49.188;-0.374;2022-08-02T09:22:04;101670.75;;;29.79;45.34
48862;BME280;34681;49.188;-0.374;2022-08-02T09:24:41;101672.63;;;30.02;45.04
48862;BME280;34681;49.188;-0.374;2022-08-02T09:27:16;101670.97;;;30.17;43.92
48862;BME280;34681;49.188;-0.374;2022-08-02T09:29:46;101688.31;;;30.26;43.96
48862;BME280;34681;49.188;-0.374;2022-08-02T09:32:12;101679.25;;;30.24;44.23
48862;BME280;34681;49.188;-0.374;2022-08-02T09:34:53;101688.50;;;30.36;43.78
48862;BME280;34681;49.188;-0.374;2022-08-02T09:39:47;101688.34;;;30.43;44.27
48862;BME280;34681;49.188;-0.374;2022-08-02T09:42:12;101691.25;;;30.48;44.03
48862;BME280;34681;49.188;-0.374;2022-08-02T09:44:39;101690.47;;;30.36;43.61
48862;BME280;34681;49.188;-0.374;2022-08-02T09:47:13;101677.97;;;30.15;44.37
48862;BME280;34681;49.188;-0.374;2022-08-02T09:49:45;101682.84;;;30.19;43.68
48862;BME280;34681;49.188;-0.374;2022-08-02T09:52:11;101680.97;;;30.08;43.79
48862;BME280;34681;49.188;-0.374;2022-08-02T09:54:38;101675.91;;;29.82;45.05
48862;BME280;34681;49.188;-0.374;2022-08-02T09:57:03;101680.19;;;29.44;44.77
48862;BME280;34681;49.188;-0.374;2022-08-02T09:59:28;101680.25;;;29.21;45.63
48862;BME280;34681;49.188;-0.374;2022-08-02T10:01:56;101678.06;;;29.11;47.22
48862;BME280;34681;49.188;-0.374;2022-08-02T10:04:24;101674.75;;;28.79;46.73
48862;BME280;34681;49.188;-0.374;2022-08-02T10:06:51;101673.53;;;28.51;47.75
48862;BME280;34681;49.188;-0.374;2022-08-02T10:09:16;101670.84;;;28.03;47.97
48862;BME280;34681;49.188;-0.374;2022-08-02T10:11:42;101676.44;;;27.91;48.42
48862;BME280;34681;49.188;-0.374;2022-08-02T10:14:09;101667.94;;;27.80;48.98
48862;BME280;34681;49.188;-0.374;2022-08-02T10:16:37;101675.81;;;27.59;49.33
48862;BME280;34681;49.188;-0.374;2022-08-02T10:19:02;101676.41;;;27.61;49.87
48862;BME280;34681;49.188;-0.374;2022-08-02T10:21:36;101677.47;;;27.49;49.74
48862;BME280;34681;49.188;-0.374;2022-08-02T10:24:29;101672.16;;;27.22;50.15
48862;BME280;34681;49.188;-0.374;2022-08-02T10:26:57;101669.16;;;27.24;50.88
48862;BME280;34681;49.188;-0.374;2022-08-02T10:29:29;101679.53;;;27.23;50.43
48862;BME280;34681;49.188;-0.374;2022-08-02T10:31:57;101660.63;;;27.12;50.88
48862;BME280;34681;49.188;-0.374;2022-08-02T10:34:42;101663.19;;;27.13;50.73
48862;BME280;34681;49.188;-0.374;2022-08-02T10:37:10;101661.41;;;27.19;50.60
48862;BME280;34681;49.188;-0.374;2022-08-02T10:39:41;101654.38;;;27.10;51.15
48862;BME280;34681;49.188;-0.374;2022-08-02T10:42:08;101657.25;;;27.22;51.45
48862;BME280;34681;49.188;-0.374;2022-08-02T10:44:35;101657.13;;;27.17;50.94
48862;BME280;34681;49.188;-0.374;2022-08-02T10:49:57;101656.94;;;26.93;50.96
48862;BME280;34681;49.188;-0.374;2022-08-02T10:52:23;101657.31;;;26.78;51.26
48862;BME280;34681;49.188;-0.374;2022-08-02T10:55:00;101647.66;;;26.93;52.01
48862;BME280;34681;49.188;-0.374;2022-08-02T10:57:42;101649.97;;;26.96;51.51
48862;BME280;34681;49.188;-0.374;2022-08-02T11:02:45;101636.19;;;27.12;51.68
48862;BME280;34681;49.188;-0.374;2022-08-02T11:05:16;101633.94;;;27.21;51.24
48862;BME280;34681;49.188;-0.374;2022-08-02T11:07:48;101633.72;;;27.23;50.93
48862;BME280;34681;49.188;-0.374;2022-08-02T11:15:27;101627.22;;;27.22;51.27
48862;BME280;34681;49.188;-0.374;2022-08-02T11:17:55;101631.56;;;27.36;50.89
48862;BME280;34681;49.188;-0.374;2022-08-02T11:20:22;101627.13;;;27.29;50.66
48862;BME280;34681;49.188;-0.374;2022-08-02T11:22:48;101630.03;;;27.04;50.86
48862;BME280;34681;49.188;-0.374;2022-08-02T11:27:50;101618.13;;;27.38;50.68
48862;BME280;34681;49.188;-0.374;2022-08-02T11:30:17;101609.38;;;27.17;50.58
48862;BME280;34681;49.188;-0.374;2022-08-02T11:32:43;101614.38;;;27.14;51.42
48862;BME280;34681;49.188;-0.374;2022-08-02T11:35:08;101613.34;;;26.91;50.90
48862;BME280;34681;49.188;-0.374;2022-08-02T11:37:37;101609.44;;;26.92;51.32
48862;BME280;34681;49.188;-0.374;2022-08-02T11:40:11;101616.53;;;26.76;51.25
48862;BME280;34681;49.188;-0.374;2022-08-02T11:42:39;101610.97;;;26.87;51.43
48862;BME280;34681;49.188;-0.374;2022-08-02T11:45:07;101612.78;;;27.00;51.92
48862;BME280;34681;49.188;-0.374;2022-08-02T11:47:33;101609.94;;;27.07;50.95
48862;BME280;34681;49.188;-0.374;2022-08-02T11:50:06;101607.63;;;26.97;50.69
48862;BME280;34681;49.188;-0.374;2022-08-02T11:52:33;101609.28;;;26.86;52.03
48862;BME280;34681;49.188;-0.374;2022-08-02T11:54:59;101602.47;;;26.94;51.08
48862;BME280;34681;49.188;-0.374;2022-08-02T11:57:25;101602.47;;;26.94;50.96
48862;BME280;34681;49.188;-0.374;2022-08-02T11:59:51;101608.28;;;26.99;50.88
48862;BME280;34681;49.188;-0.374;2022-08-02T12:02:19;101596.97;;;27.24;50.07
48862;BME280;34681;49.188;-0.374;2022-08-02T12:04:57;101590.03;;;27.08;50.36
48862;BME280;34681;49.188;-0.374;2022-08-02T12:07:32;101582.59;;;26.96;51.10
48862;BME280;34681;49.188;-0.374;2022-08-02T12:10:14;101585.66;;;26.76;51.31
48862;BME280;34681;49.188;-0.374;2022-08-02T12:15:12;101580.09;;;26.69;51.65
48862;BME280;34681;49.188;-0.374;2022-08-02T12:17:37;101577.47;;;26.93;51.50
48862;BME280;34681;49.188;-0.374;2022-08-02T12:20:36;101568.41;;;27.09;49.68
48862;BME280;34681;49.188;-0.374;2022-08-02T12:23:02;101574.56;;;27.18;49.69
48862;BME280;34681;49.188;-0.374;2022-08-02T12:25:28;101562.69;;;26.97;50.39
48862;BME280;34681;49.188;-0.374;2022-08-02T12:28:19;101565.38;;;26.74;50.99
48862;BME280;34681;49.188;-0.374;2022-08-02T12:30:54;101565.34;;;26.55;51.55
48862;BME280;34681;49.188;-0.374;2022-08-02T12:33:21;101563.97;;;26.65;51.51
48862;BME280;34681;49.188;-0.374;2022-08-02T12:35:46;101568.50;;;26.66;51.41
48862;BME280;34681;49.188;-0.374;2022-08-02T12:38:12;101563.97;;;26.65;51.41
48862;BME280;34681;49.188;-0.374;2022-08-02T12:40:38;101563.13;;;26.82;51.33
48862;BME280;34681;49.188;-0.374;2022-08-02T12:43:05;101559.13;;;26.90;51.15
48862;BME280;34681;49.188;-0.374;2022-08-02T12:45:51;101556.09;;;26.73;51.20
48862;BME280;34681;49.188;-0.374;2022-08-02T12:48:35;101548.44;;;27.17;50.45
48862;BME280;34681;49.188;-0.374;2022-08-02T12:51:38;101549.63;;;27.09;50.68
48862;BME280;34681;49.188;-0.374;2022-08-02T12:54:13;101557.81;;;27.41;51.11
48862;BME280;34681;49.188;-0.374;2022-08-02T12:56:39;101558.56;;;27.48;50.08
48862;BME280;34681;49.188;-0.374;2022-08-02T12:59:05;101560.28;;;27.49;52.90
48862;BME280;34681;49.188;-0.374;2022-08-02T13:01:30;101562.91;;;27.32;53.50
48862;BME280;34681;49.188;-0.374;2022-08-02T13:03:57;101551.03;;;26.82;54.83
48862;BME280;34681;49.188;-0.374;2022-08-02T13:06:23;101556.09;;;26.73;55.40
48862;BME280;34681;49.188;-0.374;2022-08-02T13:08:49;101552.03;;;26.51;55.86
48862;BME280;34681;49.188;-0.374;2022-08-02T13:11:15;101546.44;;;26.69;55.69
48862;BME280;34681;49.188;-0.374;2022-08-02T13:13:41;101531.69;;;26.74;55.48
48862;BME280;34681;49.188;-0.374;2022-08-02T13:16:08;101541.59;;;26.76;54.92
48862;BME280;34681;49.188;-0.374;2022-08-02T13:18:35;101525.13;;;26.80;53.73
48862;BME280;34681;49.188;-0.374;2022-08-02T13:21:00;101528.78;;;26.99;54.44
48862;BME280;34681;49.188;-0.374;2022-08-02T13:23:26;101518.84;;;26.96;54.39